createdAt,value
2019-02-09T00:00:30.526Z,98.60
2019-02-09T00:03:02.576Z,98.55
2019-02-09T00:05:34.669Z,98.48
2019-02-09T00:08:07.834Z,98.47
2019-02-09T00:10:39.983Z,98.51
2019-02-09T00:13:12.338Z,98.49
2019-02-09T00:15:44.745Z,98.48
2019-02-09T00:18:17.185Z,98.58
2019-02-09T00:20:49.554Z,98.61
2019-02-09T00:23:21.596Z,98.68
2019-02-09T00:25:53.679Z,98.80
2019-02-09T00:28:25.738Z,98.89
2019-02-09T00:30:58.387Z,99.00
2019-02-09T00:33:30.434Z,99.17
2019-02-09T00:36:02.966Z,99.18
2019-02-09T00:38:35.411Z,99.38
2019-02-09T00:41:07.743Z,99.53
2019-02-09T00:43:40.089Z,99.58
2019-02-09T00:46:12.454Z,99.67
2019-02-09T00:48:44.530Z,99.73
2019-02-09T00:51:16.918Z,99.85
2019-02-09T00:53:49.262Z,100.00
2019-02-09T00:56:21.947Z,100.00
2019-02-09T00:58:54.333Z,100.00
2019-02-09T01:01:26.506Z,100.00
2019-02-09T01:03:58.597Z,100.00
2019-02-09T01:06:30.667Z,100.00
2019-02-09T01:09:04.082Z,100.00
2019-02-09T01:11:36.164Z,100.00
2019-02-09T01:14:08.677Z,100.00
2019-02-09T01:16:41.051Z,100.00
2019-02-09T01:19:13.085Z,100.00
2019-02-09T01:21:45.154Z,100.00
2019-02-09T01:24:17.303Z,100.00
2019-02-09T01:26:49.692Z,100.00
2019-02-09T01:29:21.743Z,100.00
2019-02-09T01:31:53.812Z,100.00
2019-02-09T01:34:25.866Z,100.00
2019-02-09T01:36:58.035Z,100.00
2019-02-09T01:39:30.090Z,100.00
2019-02-09T01:42:02.189Z,100.00
2019-02-09T01:44:34.251Z,100.00
2019-02-09T01:47:06.627Z,100.00
2019-02-09T01:49:39.354Z,100.00
2019-02-09T01:52:11.719Z,100.00
2019-02-09T01:54:43.968Z,100.00
2019-02-09T01:57:16.337Z,100.00
2019-02-09T01:59:48.388Z,100.00
2019-02-09T02:02:20.574Z,100.00
2019-02-09T02:04:52.916Z,100.00
2019-02-09T02:07:25.164Z,100.00
2019-02-09T02:09:57.507Z,100.00
2019-02-09T02:12:29.845Z,100.00
2019-02-09T02:15:02.172Z,100.00
2019-02-09T02:17:34.285Z,100.00
2019-02-09T02:20:09.585Z,100.00
2019-02-09T02:22:41.698Z,100.00
2019-02-09T02:25:14.734Z,100.00
2019-02-09T02:27:47.347Z,100.00
2019-02-09T02:30:25.956Z,100.00
2019-02-09T02:32:58.128Z,100.00
2019-02-09T02:35:30.456Z,100.00
2019-02-09T02:38:02.865Z,99.86
2019-02-09T02:40:35.287Z,99.58
2019-02-09T02:43:07.557Z,99.21
2019-02-09T02:45:40.067Z,98.80
2019-02-09T02:48:12.399Z,98.56
2019-02-09T02:50:44.488Z,98.34
2019-02-09T02:53:16.738Z,98.09
2019-02-09T02:55:49.089Z,97.95
2019-02-09T02:58:21.155Z,97.66
2019-02-09T03:00:53.581Z,97.40
2019-02-09T03:03:26.285Z,97.23
2019-02-09T03:05:58.642Z,96.91
2019-02-09T03:08:30.713Z,96.63
2019-02-09T03:11:02.764Z,96.21
2019-02-09T03:13:35.408Z,95.87
2019-02-09T03:16:07.443Z,95.53
2019-02-09T03:18:40.508Z,95.19
2019-02-09T03:21:12.866Z,94.99
2019-02-09T03:23:44.921Z,94.68
2019-02-09T03:26:16.959Z,94.52
2019-02-09T03:28:49.646Z,94.34
2019-02-09T03:31:22.167Z,93.90
2019-02-09T03:33:54.486Z,93.42
2019-02-09T03:36:26.536Z,93.03
2019-02-09T03:38:59.481Z,92.70
2019-02-09T03:41:31.791Z,92.37
2019-02-09T03:44:03.875Z,92.06
2019-02-09T03:46:36.266Z,91.90
2019-02-09T03:49:08.748Z,91.68
2019-02-09T03:51:41.074Z,91.68
2019-02-09T03:54:13.137Z,91.70
2019-02-09T03:56:45.261Z,91.71
2019-02-09T03:59:17.326Z,91.97
2019-02-09T04:01:49.388Z,92.34
2019-02-09T04:04:22.121Z,92.63
2019-02-09T04:06:54.464Z,93.00
2019-02-09T04:09:26.581Z,93.28
2019-02-09T04:11:58.626Z,93.27
2019-02-09T04:14:30.782Z,93.52
2019-02-09T04:17:02.827Z,93.79
2019-02-09T04:19:34.876Z,94.07
2019-02-09T04:22:07.491Z,94.33
2019-02-09T04:24:39.588Z,94.71
2019-02-09T04:27:11.623Z,95.07
2019-02-09T04:29:43.733Z,95.51
2019-02-09T04:32:15.833Z,95.96
2019-02-09T04:34:47.891Z,96.37
2019-02-09T04:37:19.947Z,96.65
2019-02-09T04:39:52.568Z,97.04
2019-02-09T04:42:25.309Z,97.38
2019-02-09T04:44:57.666Z,97.63
2019-02-09T04:47:29.823Z,97.81
2019-02-09T04:50:01.903Z,97.95
2019-02-09T04:52:33.962Z,98.11
2019-02-09T04:55:09.067Z,98.29
2019-02-09T04:57:41.752Z,98.48
2019-02-09T05:00:16.846Z,98.63
2019-02-09T05:02:49.727Z,98.90
2019-02-09T05:05:22.082Z,99.21
2019-02-09T05:07:54.133Z,99.63
2019-02-09T05:10:27.049Z,100.00
2019-02-09T05:12:59.373Z,100.00
2019-02-09T05:15:31.520Z,100.00
2019-02-09T05:18:03.901Z,100.00
2019-02-09T05:20:36.244Z,100.00
2019-02-09T05:23:08.293Z,100.00
2019-02-09T05:25:40.581Z,100.00
2019-02-09T05:28:12.891Z,100.00
2019-02-09T05:30:45.899Z,100.00
2019-02-09T05:33:18.321Z,100.00
2019-02-09T05:35:50.454Z,100.00
2019-02-09T05:38:22.512Z,100.00
2019-02-09T05:40:55.151Z,100.00
2019-02-09T05:43:27.203Z,100.00
2019-02-09T05:45:59.844Z,100.00
2019-02-09T05:48:31.886Z,100.00
2019-02-09T05:51:05.034Z,100.00
2019-02-09T05:53:37.366Z,100.00
2019-02-09T05:56:09.443Z,100.00
2019-02-09T05:58:41.562Z,100.00
2019-02-09T06:01:13.676Z,100.00
2019-02-09T06:03:45.680Z,100.00
2019-02-09T06:06:17.746Z,100.00
2019-02-09T06:08:49.794Z,100.00
2019-02-09T06:11:21.861Z,100.00
2019-02-09T06:13:54.306Z,100.00
2019-02-09T06:16:26.692Z,100.00
2019-02-09T06:18:58.741Z,100.00
2019-02-09T06:21:30.856Z,100.00
2019-02-09T06:24:03.005Z,100.00
2019-02-09T06:26:35.232Z,100.00
2019-02-09T06:29:07.541Z,100.00
2019-02-09T06:31:41.218Z,100.00
2019-02-09T06:34:14.040Z,100.00
2019-02-09T06:36:46.421Z,100.00
2019-02-09T06:39:19.200Z,100.00
2019-02-09T06:41:51.675Z,100.00
2019-02-09T06:44:24.444Z,100.00
2019-02-09T06:46:56.791Z,100.00
2019-02-09T06:49:28.847Z,100.00
2019-02-09T06:52:01.479Z,100.00
2019-02-09T06:54:33.617Z,100.00
2019-02-09T06:57:06.163Z,100.00
2019-02-09T06:59:38.495Z,100.00
2019-02-09T07:02:11.196Z,100.00
2019-02-09T07:04:43.695Z,100.00
2019-02-09T07:07:16.481Z,100.00
2019-02-09T07:09:49.071Z,100.00
2019-02-09T07:12:21.558Z,100.00
2019-02-09T07:14:53.912Z,100.00
2019-02-09T07:17:25.976Z,100.00
2019-02-09T07:19:58.079Z,100.00
2019-02-09T07:22:30.245Z,100.00
2019-02-09T07:25:02.635Z,100.00
2019-02-09T07:27:35.489Z,100.00
2019-02-09T07:30:11.889Z,100.00
2019-02-09T07:32:44.609Z,100.00
2019-02-09T07:35:16.765Z,100.00
2019-02-09T07:37:49.413Z,100.00
2019-02-09T07:40:23.173Z,100.00
2019-02-09T07:42:56.685Z,100.00
2019-02-09T07:45:27.934Z,100.00
2019-02-09T07:47:59.990Z,100.00
2019-02-09T07:50:32.192Z,100.00
2019-02-09T07:53:04.261Z,100.00
2019-02-09T07:55:36.985Z,100.00
2019-02-09T07:58:09.408Z,100.00
2019-02-09T08:00:41.469Z,100.00
2019-02-09T08:03:14.311Z,100.00
2019-02-09T08:05:46.987Z,100.00
2019-02-09T08:08:19.968Z,100.00
2019-02-09T08:10:52.302Z,100.00
2019-02-09T08:13:24.398Z,100.00
2019-02-09T08:15:56.474Z,100.00
2019-02-09T08:18:28.561Z,100.00
2019-02-09T08:21:00.599Z,100.00
2019-02-09T08:23:33.280Z,100.00
2019-02-09T08:26:06.807Z,100.00
2019-02-09T08:28:39.834Z,100.00
2019-02-09T08:31:12.210Z,100.00
2019-02-09T08:33:44.916Z,100.00
2019-02-09T08:36:17.390Z,100.00
2019-02-09T08:38:49.451Z,100.00
2019-02-09T08:41:21.524Z,100.00
2019-02-09T08:43:53.583Z,99.67
2019-02-09T08:46:26.286Z,99.03
2019-02-09T08:48:58.654Z,98.43
2019-02-09T08:51:30.678Z,97.61
2019-02-09T08:54:02.809Z,96.44
2019-02-09T08:56:35.023Z,95.08
2019-02-09T08:59:07.448Z,94.05
2019-02-09T09:01:40.076Z,92.94
2019-02-09T09:04:12.429Z,92.31
2019-02-09T09:06:44.473Z,91.22
2019-02-09T09:09:16.903Z,90.41
2019-02-09T09:11:49.940Z,89.84
2019-02-09T09:14:22.421Z,89.57
2019-02-09T09:16:55.574Z,89.48
2019-02-09T09:19:28.248Z,89.15
2019-02-09T09:22:01.142Z,89.06
2019-02-09T09:24:33.507Z,88.90
2019-02-09T09:27:07.390Z,88.83
2019-02-09T09:29:41.206Z,88.79
2019-02-09T09:32:13.801Z,88.73
2019-02-09T09:34:46.196Z,88.77
2019-02-09T09:37:18.741Z,88.75
2019-02-09T09:39:51.063Z,88.83
2019-02-09T09:42:23.499Z,88.98
2019-02-09T09:44:56.030Z,89.03
2019-02-09T09:47:28.437Z,89.26
2019-02-09T09:50:00.978Z,89.34
2019-02-09T09:52:33.372Z,89.01
2019-02-09T09:55:06.662Z,88.76
2019-02-09T09:57:38.024Z,88.40
2019-02-09T10:00:12.559Z,88.03
2019-02-09T10:02:45.398Z,87.24
2019-02-09T10:05:18.436Z,86.83
2019-02-09T10:07:50.848Z,85.99
2019-02-09T10:10:23.836Z,85.47
2019-02-09T10:12:56.220Z,84.91
2019-02-09T10:15:28.830Z,84.50
2019-02-09T10:18:01.569Z,84.33
2019-02-09T10:20:33.930Z,83.45
2019-02-09T10:23:06.770Z,82.81
2019-02-09T10:25:39.038Z,82.30
2019-02-09T10:28:11.825Z,81.24
2019-02-09T10:30:44.329Z,80.69
2019-02-09T10:33:17.050Z,80.35
2019-02-09T10:35:49.911Z,79.93
2019-02-09T10:38:22.280Z,79.42
2019-02-09T10:40:54.749Z,78.64
2019-02-09T10:43:27.488Z,78.23
2019-02-09T10:46:00.108Z,77.68
2019-02-09T10:48:32.437Z,77.14
2019-02-09T10:51:04.738Z,76.57
2019-02-09T10:53:37.066Z,75.92
2019-02-09T10:56:09.118Z,75.42
2019-02-09T10:58:41.353Z,74.75
2019-02-09T11:01:18.284Z,74.38
2019-02-09T11:03:51.010Z,73.93
2019-02-09T11:06:23.468Z,73.01
2019-02-09T11:08:55.954Z,72.00
2019-02-09T11:11:28.422Z,71.47
2019-02-09T11:14:00.768Z,71.31
2019-02-09T11:16:32.873Z,70.10
2019-02-09T11:19:05.062Z,70.06
2019-02-09T11:21:37.470Z,69.60
2019-02-09T11:24:09.821Z,68.98
2019-02-09T11:26:42.270Z,68.90
2019-02-09T11:29:14.957Z,69.18
2019-02-09T11:31:47.417Z,68.59
2019-02-09T11:34:20.118Z,68.94
2019-02-09T11:36:52.777Z,69.06
2019-02-09T11:39:25.189Z,68.42
2019-02-09T11:41:57.553Z,67.87
2019-02-09T11:44:30.314Z,67.68
2019-02-09T11:47:03.121Z,67.78
2019-02-09T11:49:36.110Z,68.37
2019-02-09T11:52:08.363Z,67.69
2019-02-09T11:54:40.696Z,68.15
2019-02-09T11:57:13.047Z,67.97
2019-02-09T11:59:45.598Z,68.19
2019-02-09T12:02:17.939Z,68.52
2019-02-09T12:04:50.032Z,69.13
2019-02-09T12:07:23.893Z,69.39
2019-02-09T12:09:56.411Z,69.77
2019-02-09T12:12:28.953Z,70.11
2019-02-09T12:15:01.298Z,70.11
2019-02-09T12:17:33.644Z,70.48
2019-02-09T12:20:08.838Z,70.04
2019-02-09T12:22:41.518Z,69.66
2019-02-09T12:25:18.525Z,69.28
2019-02-09T12:27:51.159Z,69.04
2019-02-09T12:30:26.492Z,68.62
2019-02-09T12:32:59.469Z,68.48
2019-02-09T12:35:31.973Z,68.35
2019-02-09T12:38:05.242Z,68.49
2019-02-09T12:40:38.589Z,68.61
2019-02-09T12:43:11.071Z,68.32
2019-02-09T12:45:43.443Z,67.77
2019-02-09T12:48:15.887Z,67.83
2019-02-09T12:50:48.581Z,68.20
2019-02-09T12:53:20.927Z,67.85
2019-02-09T12:56:08.436Z,67.40
2019-02-09T12:58:41.225Z,67.46
2019-02-09T13:01:13.665Z,67.22
2019-02-09T13:03:46.075Z,67.71
2019-02-09T13:06:18.459Z,67.81
2019-02-09T13:08:51.121Z,67.60
2019-02-09T13:11:23.506Z,68.17
2019-02-09T13:13:55.870Z,68.40
2019-02-09T13:16:28.565Z,68.75
2019-02-09T13:19:00.948Z,68.52
2019-02-09T13:21:33.270Z,68.00
2019-02-09T13:24:06.072Z,68.55
2019-02-09T13:26:38.467Z,67.84
2019-02-09T13:29:11.371Z,67.73
2019-02-09T13:31:43.689Z,67.71
2019-02-09T13:34:16.072Z,67.24
2019-02-09T13:36:48.744Z,67.33
2019-02-09T13:39:21.130Z,67.56
2019-02-09T13:41:53.480Z,67.05
2019-02-09T13:44:26.343Z,67.40
2019-02-09T13:46:58.673Z,66.81
2019-02-09T13:49:30.751Z,66.69
2019-02-09T13:52:02.803Z,66.75
2019-02-09T13:54:35.152Z,66.34
2019-02-09T13:57:07.752Z,66.81
2019-02-09T13:59:40.103Z,65.73
2019-02-09T14:02:12.472Z,66.16
2019-02-09T14:04:44.866Z,66.31
2019-02-09T14:07:17.187Z,66.35
2019-02-09T14:09:49.267Z,65.94
2019-02-09T14:12:21.341Z,65.86
2019-02-09T14:14:53.684Z,65.79
2019-02-09T14:17:26.042Z,66.18
2019-02-09T14:19:58.416Z,65.38
2019-02-09T14:22:31.018Z,65.26
2019-02-09T14:25:03.384Z,65.08
2019-02-09T14:27:35.771Z,64.67
2019-02-09T14:30:14.080Z,65.15
2019-02-09T14:32:47.062Z,64.41
2019-02-09T14:35:19.437Z,64.26
2019-02-09T14:37:52.487Z,65.07
2019-02-09T14:40:30.730Z,64.70
2019-02-09T14:43:04.060Z,64.64
2019-02-09T14:45:39.503Z,64.58
2019-02-09T14:48:12.174Z,64.89
2019-02-09T14:50:44.876Z,64.92
2019-02-09T14:53:18.817Z,65.09
2019-02-09T14:55:51.594Z,65.36
2019-02-09T14:58:24.133Z,65.61
2019-02-09T15:00:57.401Z,65.65
2019-02-09T15:03:30.816Z,66.33
2019-02-09T15:06:03.863Z,65.70
2019-02-09T15:08:37.393Z,66.09
2019-02-09T15:11:10.479Z,66.34
2019-02-09T15:13:43.098Z,66.14
2019-02-09T15:16:43.734Z,66.73
2019-02-09T15:19:17.363Z,67.15
2019-02-09T15:21:50.356Z,67.96
2019-02-09T15:24:25.329Z,67.74
2019-02-09T15:26:57.982Z,67.65
2019-02-09T15:29:30.328Z,68.11
2019-02-09T15:32:02.684Z,68.51
2019-02-09T15:34:35.007Z,68.38
2019-02-09T15:37:07.866Z,68.40
2019-02-09T15:39:40.190Z,68.76
2019-02-09T15:42:12.301Z,69.22
2019-02-09T15:44:44.718Z,69.05
2019-02-09T15:47:18.373Z,69.42
2019-02-09T15:49:51.383Z,69.44
2019-02-09T15:52:23.885Z,69.79
2019-02-09T15:54:56.211Z,70.35
2019-02-09T15:57:28.660Z,70.55
2019-02-09T16:00:01.081Z,70.80
2019-02-09T16:02:33.430Z,71.19
2019-02-09T16:05:06.355Z,71.16
2019-02-09T16:07:38.742Z,71.40
2019-02-09T16:10:11.816Z,71.26
2019-02-09T16:12:42.894Z,71.46
2019-02-09T16:15:18.661Z,71.11
2019-02-09T16:17:51.646Z,71.50
2019-02-09T16:20:25.345Z,71.56
2019-02-09T16:22:58.352Z,72.00
2019-02-09T16:25:30.995Z,71.93
2019-02-09T16:28:03.797Z,71.88
2019-02-09T16:30:36.183Z,72.12
2019-02-09T16:33:08.588Z,72.75
2019-02-09T16:35:40.933Z,72.66
2019-02-09T16:38:13.067Z,73.34
2019-02-09T16:40:45.458Z,73.87
2019-02-09T16:43:18.271Z,73.72
2019-02-09T16:45:50.795Z,73.61
2019-02-09T16:48:23.594Z,73.60
2019-02-09T16:50:55.919Z,73.59
2019-02-09T16:53:27.991Z,73.33
2019-02-09T16:56:00.048Z,73.37
2019-02-09T16:58:32.476Z,73.62
2019-02-09T17:01:05.391Z,73.68
2019-02-09T17:03:38.060Z,73.96
2019-02-09T17:06:25.300Z,74.51
2019-02-09T17:08:58.885Z,75.15
2019-02-09T17:11:31.317Z,75.85
2019-02-09T17:14:03.824Z,76.82
2019-02-09T17:16:36.211Z,77.40
2019-02-09T17:19:08.581Z,78.12
2019-02-09T17:21:41.204Z,77.62
2019-02-09T17:24:13.571Z,77.76
2019-02-09T17:26:45.629Z,78.22
2019-02-09T17:29:17.694Z,78.96
2019-02-09T17:31:49.786Z,79.40
2019-02-09T17:34:21.842Z,79.63
2019-02-09T17:36:54.740Z,80.18
2019-02-09T17:39:27.054Z,80.81
2019-02-09T17:41:59.209Z,81.19
2019-02-09T17:44:31.537Z,81.72
2019-02-09T17:47:03.643Z,82.16
2019-02-09T17:49:35.687Z,82.57
2019-02-09T17:52:08.487Z,82.91
2019-02-09T17:54:40.848Z,83.25
2019-02-09T17:57:13.913Z,83.50
2019-02-09T17:59:46.209Z,83.78
2019-02-09T18:02:18.268Z,83.96
2019-02-09T18:04:50.440Z,84.23
2019-02-09T18:07:23.186Z,84.69
2019-02-09T18:09:55.510Z,85.16
2019-02-09T18:12:27.591Z,85.61
2019-02-09T18:14:59.766Z,85.83
2019-02-09T18:17:31.865Z,85.88
2019-02-09T18:20:05.139Z,85.93
2019-02-09T18:22:37.779Z,86.14
2019-02-09T18:25:11.886Z,86.15
2019-02-09T18:27:48.165Z,86.22
2019-02-09T18:30:23.041Z,86.20
2019-02-09T18:32:55.766Z,86.28
2019-02-09T18:35:28.485Z,86.41
2019-02-09T18:38:00.823Z,86.69
2019-02-09T18:40:32.971Z,86.81
2019-02-09T18:43:05.214Z,87.04
2019-02-09T18:45:37.578Z,87.45
2019-02-09T18:48:09.770Z,87.80
2019-02-09T18:50:43.124Z,88.31
2019-02-09T18:53:14.421Z,88.87
2019-02-09T18:55:46.438Z,89.36
2019-02-09T18:58:19.805Z,89.76
2019-02-09T19:00:52.496Z,90.25
2019-02-09T19:03:24.832Z,90.84
2019-02-09T19:05:57.143Z,91.48
2019-02-09T19:08:29.202Z,91.81
2019-02-09T19:11:02.293Z,92.34
2019-02-09T19:13:35.389Z,92.70
2019-02-09T19:16:08.758Z,92.97
2019-02-09T19:18:41.557Z,93.41
2019-02-09T19:21:17.146Z,93.85
2019-02-09T19:23:50.099Z,94.20
2019-02-09T19:26:22.444Z,94.52
2019-02-09T19:28:54.847Z,94.91
2019-02-09T19:31:27.165Z,94.98
2019-02-09T19:33:59.567Z,95.37
2019-02-09T19:36:31.886Z,95.52
2019-02-09T19:39:08.026Z,95.86
2019-02-09T19:41:40.660Z,96.04
2019-02-09T19:44:12.807Z,96.18
2019-02-09T19:46:45.258Z,96.02
2019-02-09T19:49:17.598Z,95.71
2019-02-09T19:51:49.644Z,95.37
2019-02-09T19:54:22.274Z,95.17
2019-02-09T19:56:54.438Z,94.88
2019-02-09T19:59:27.117Z,94.22
2019-02-09T20:01:59.514Z,93.53
2019-02-09T20:04:31.611Z,93.02
2019-02-09T20:07:04.402Z,92.13
2019-02-09T20:09:36.939Z,91.39
2019-02-09T20:12:09.665Z,90.86
2019-02-09T20:14:42.011Z,90.47
2019-02-09T20:17:14.111Z,89.86
2019-02-09T20:19:46.583Z,89.44
2019-02-09T20:22:18.904Z,89.06
2019-02-09T20:24:51.081Z,88.92
2019-02-09T20:27:23.244Z,88.77
2019-02-09T20:29:56.736Z,88.61
2019-02-09T20:32:29.335Z,88.35
2019-02-09T20:35:01.454Z,88.21
2019-02-09T20:37:33.622Z,88.38
2019-02-09T20:40:07.700Z,88.81
2019-02-09T20:42:40.903Z,89.30
2019-02-09T20:45:14.390Z,89.90
2019-02-09T20:47:49.765Z,90.58
2019-02-09T20:50:21.823Z,91.01
2019-02-09T20:52:54.482Z,91.45
2019-02-09T20:55:26.967Z,91.89
2019-02-09T20:57:59.406Z,92.20
2019-02-09T21:00:32.132Z,92.59
2019-02-09T21:03:05.397Z,92.93
2019-02-09T21:05:37.072Z,93.32
2019-02-09T21:08:11.315Z,93.64
2019-02-09T21:10:44.422Z,93.97
2019-02-09T21:13:17.124Z,94.05
2019-02-09T21:15:50.020Z,94.10
2019-02-09T21:18:22.569Z,93.96
2019-02-09T21:20:54.908Z,93.91
2019-02-09T21:23:27.005Z,93.81
2019-02-09T21:25:59.402Z,93.56
2019-02-09T21:28:31.762Z,93.21
2019-02-09T21:31:04.175Z,93.04
2019-02-09T21:33:36.827Z,92.78
2019-02-09T21:36:09.456Z,92.48
2019-02-09T21:38:42.185Z,92.39
2019-02-09T21:41:14.888Z,92.49
2019-02-09T21:43:47.215Z,92.85
2019-02-09T21:46:20.360Z,93.40
2019-02-09T21:48:53.428Z,93.83
2019-02-09T21:51:25.833Z,94.27
2019-02-09T21:53:58.200Z,94.70
2019-02-09T21:56:30.367Z,95.17
2019-02-09T21:59:02.817Z,95.63
2019-02-09T22:01:35.314Z,95.92
2019-02-09T22:04:07.752Z,96.34
2019-02-09T22:06:40.487Z,96.80
2019-02-09T22:09:12.941Z,97.16
2019-02-09T22:11:45.314Z,97.47
2019-02-09T22:14:17.822Z,97.71
2019-02-09T22:16:50.641Z,98.18
2019-02-09T22:19:23.350Z,98.48
2019-02-09T22:21:56.087Z,98.79
2019-02-09T22:24:28.518Z,99.02
2019-02-09T22:27:00.618Z,99.29
2019-02-09T22:29:33.326Z,99.61
2019-02-09T22:32:05.924Z,100.00
2019-02-09T22:34:38.277Z,100.00
2019-02-09T22:37:10.414Z,100.00
2019-02-09T22:39:42.553Z,100.00
2019-02-09T22:42:15.088Z,100.00
2019-02-09T22:44:47.760Z,100.00
2019-02-09T22:47:20.880Z,100.00
2019-02-09T22:49:53.725Z,100.00
2019-02-09T22:52:26.100Z,100.00
2019-02-09T22:54:58.569Z,100.00
2019-02-09T22:57:30.913Z,100.00
2019-02-09T23:00:03.264Z,100.00
2019-02-09T23:02:35.601Z,100.00
2019-02-09T23:05:54.635Z,100.00
2019-02-09T23:08:31.019Z,100.00
2019-02-09T23:11:03.779Z,100.00
2019-02-09T23:13:36.455Z,100.00
2019-02-09T23:16:09.254Z,100.00
2019-02-09T23:18:41.602Z,100.00
2019-02-09T23:21:13.780Z,100.00
2019-02-09T23:23:46.271Z,100.00
2019-02-09T23:26:18.638Z,100.00
2019-02-09T23:28:50.701Z,100.00
2019-02-09T23:31:22.771Z,100.00
2019-02-09T23:33:55.301Z,100.00
2019-02-09T23:36:27.626Z,100.00
2019-02-09T23:38:59.868Z,100.00
2019-02-09T23:41:32.335Z,100.00
2019-02-09T23:44:04.870Z,100.00
2019-02-09T23:46:38.009Z,100.00
2019-02-09T23:49:10.182Z,100.00
2019-02-09T23:51:42.362Z,100.00
2019-02-09T23:54:14.415Z,100.00
2019-02-09T23:56:46.531Z,100.00
2019-02-09T23:59:18.592Z,100.00
